sensor_id;sensor_type;location;lat;lon;timestamp;pressure;altitude;pressure_sealevel;temperature;humidity
22389;BME280;11362;48.102;11.620;2022-07-19T00:00:54;95794.94;;;25.62;35.99
22389;BME280;11362;48.102;11.620;2022-07-19T00:03:19;95799.72;;;25.62;35.85
22389;BME280;11362;48.102;11.620;2022-07-19T00:05:45;95794.16;;;25.62;35.66
22389;BME280;11362;48.102;11.620;2022-07-19T00:08:10;95793.38;;;25.61;35.97
22389;BME280;11362;48.102;11.620;2022-07-19T00:10:35;95793.38;;;25.61;35.70
22389;BME280;11362;48.102;11.620;2022-07-19T00:13:01;95788.59;;;25.62;35.97
22389;BME280;11362;48.102;11.620;2022-07-19T00:15:26;95790.59;;;25.61;35.80
22389;BME280;11362;48.102;11.620;2022-07-19T00:17:51;95790.59;;;25.61;35.88
22389;BME280;11362;48.102;11.620;2022-07-19T00:20:20;95789.00;;;25.60;35.96
22389;BME280;11362;48.102;11.620;2022-07-19T00:22:45;95792.56;;;25.61;35.78
22389;BME280;11362;48.102;11.620;2022-07-19T00:25:11;95789.00;;;25.60;36.00
22389;BME280;11362;48.102;11.620;2022-07-19T00:27:37;95794.56;;;25.60;35.94
22389;BME280;11362;48.102;11.620;2022-07-19T00:30:04;95786.22;;;25.60;35.86
22389;BME280;11362;48.102;11.620;2022-07-19T00:32:30;95785.44;;;25.60;36.21
22389;BME280;11362;48.102;11.620;2022-07-19T00:34:55;95784.66;;;25.59;35.97
22389;BME280;11362;48.102;11.620;2022-07-19T00:37:21;95788.22;;;25.60;35.79
22389;BME280;11362;48.102;11.620;2022-07-19T00:39:46;95793.78;;;25.60;35.68
22389;BME280;11362;48.102;11.620;2022-07-19T00:42:11;95785.88;;;25.58;35.90
22389;BME280;11362;48.102;11.620;2022-07-19T00:44:37;95790.22;;;25.59;36.02
22389;BME280;11362;48.102;11.620;2022-07-19T00:47:03;95788.66;;;25.58;36.27
22389;BME280;11362;48.102;11.620;2022-07-19T00:49:28;95792.66;;;25.57;36.13
22389;BME280;11362;48.102;11.620;2022-07-19T00:51:54;95788.66;;;25.58;36.18
22389;BME280;11362;48.102;11.620;2022-07-19T00:54:20;95781.88;;;25.59;36.00
22389;BME280;11362;48.102;11.620;2022-07-19T00:56:50;95790.22;;;25.59;36.31
22389;BME280;11362;48.102;11.620;2022-07-19T00:59:18;95777.94;;;25.57;36.06
22389;BME280;11362;48.102;11.620;2022-07-19T01:01:44;95783.50;;;25.57;36.20
22389;BME280;11362;48.102;11.620;2022-07-19T01:04:10;95784.28;;;25.57;36.02
22389;BME280;11362;48.102;11.620;2022-07-19T01:06:36;95787.06;;;25.57;36.04
22389;BME280;11362;48.102;11.620;2022-07-19T01:09:03;95784.28;;;25.57;36.18
22389;BME280;11362;48.102;11.620;2022-07-19T01:11:28;95775.94;;;25.57;36.28
22389;BME280;11362;48.102;11.620;2022-07-19T01:13:54;95781.94;;;25.56;36.32
22389;BME280;11362;48.102;11.620;2022-07-19T01:16:19;95782.69;;;25.56;36.25
22389;BME280;11362;48.102;11.620;2022-07-19T01:18:44;95781.94;;;25.56;36.45
22389;BME280;11362;48.102;11.620;2022-07-19T01:21:23;95781.94;;;25.56;36.25
22389;BME280;11362;48.102;11.620;2022-07-19T01:23:49;95777.13;;;25.56;36.09
22389;BME280;11362;48.102;11.620;2022-07-19T01:26:15;95779.91;;;25.56;36.21
22389;BME280;11362;48.102;11.620;2022-07-19T01:28:41;95781.13;;;25.55;36.21
22389;BME280;11362;48.102;11.620;2022-07-19T01:31:06;95770.00;;;25.55;36.12
22389;BME280;11362;48.102;11.620;2022-07-19T01:33:38;95775.56;;;25.55;36.22
22389;BME280;11362;48.102;11.620;2022-07-19T01:36:03;95768.41;;;25.54;35.81
22389;BME280;11362;48.102;11.620;2022-07-19T01:38:28;95781.13;;;25.55;36.45
22389;BME280;11362;48.102;11.620;2022-07-19T01:40:54;95778.78;;;25.54;36.25
22389;BME280;11362;48.102;11.620;2022-07-19T01:43:19;95790.69;;;25.54;36.34
22389;BME280;11362;48.102;11.620;2022-07-19T01:45:44;95789.47;;;25.55;36.27
22389;BME280;11362;48.102;11.620;2022-07-19T01:48:10;95791.47;;;25.55;36.27
22389;BME280;11362;48.102;11.620;2022-07-19T01:50:35;95785.13;;;25.54;36.42
22389;BME280;11362;48.102;11.620;2022-07-19T01:53:00;95785.13;;;25.54;36.32
22389;BME280;11362;48.102;11.620;2022-07-19T01:55:26;95785.13;;;25.54;36.09
22389;BME280;11362;48.102;11.620;2022-07-19T01:57:51;95783.91;;;25.55;36.27
22389;BME280;11362;48.102;11.620;2022-07-19T02:00:17;95789.91;;;25.54;36.68
22389;BME280;11362;48.102;11.620;2022-07-19T02:02:42;95782.75;;;25.53;36.22
22389;BME280;11362;48.102;11.620;2022-07-19T02:05:08;95784.34;;;25.54;36.55
22389;BME280;11362;48.102;11.620;2022-07-19T02:07:34;95777.97;;;25.53;36.50
22389;BME280;11362;48.102;11.620;2022-07-19T02:09:59;95781.97;;;25.52;36.44
22389;BME280;11362;48.102;11.620;2022-07-19T02:12:24;95777.19;;;25.53;36.34
22389;BME280;11362;48.102;11.620;2022-07-19T02:14:50;95763.72;;;25.51;36.37
22389;BME280;11362;48.102;11.620;2022-07-19T02:17:15;95762.50;;;25.52;36.43
22389;BME280;11362;48.102;11.620;2022-07-19T02:19:41;95759.72;;;25.52;36.58
22389;BME280;11362;48.102;11.620;2022-07-19T02:22:06;95747.78;;;25.52;36.37
22389;BME280;11362;48.102;11.620;2022-07-19T02:24:31;95754.16;;;25.52;36.49
22389;BME280;11362;48.102;11.620;2022-07-19T02:26:57;95756.13;;;25.52;36.41
22389;BME280;11362;48.102;11.620;2022-07-19T02:29:22;95763.72;;;25.51;36.68
22389;BME280;11362;48.102;11.620;2022-07-19T02:31:47;95751.78;;;25.51;36.57
22389;BME280;11362;48.102;11.620;2022-07-19T02:34:13;95755.34;;;25.51;36.61
22389;BME280;11362;48.102;11.620;2022-07-19T02:36:38;95751.78;;;25.51;36.45
22389;BME280;11362;48.102;11.620;2022-07-19T02:39:03;95747.00;;;25.51;36.62
22389;BME280;11362;48.102;11.620;2022-07-19T02:41:29;95739.88;;;25.50;36.40
22389;BME280;11362;48.102;11.620;2022-07-19T02:43:54;95747.78;;;25.52;36.70
22389;BME280;11362;48.102;11.620;2022-07-19T02:46:19;95747.00;;;25.51;36.44
22389;BME280;11362;48.102;11.620;2022-07-19T02:48:45;95739.88;;;25.50;36.66
22389;BME280;11362;48.102;11.620;2022-07-19T02:51:10;95739.88;;;25.50;36.43
22389;BME280;11362;48.102;11.620;2022-07-19T02:53:36;95741.44;;;25.51;36.58
22389;BME280;11362;48.102;11.620;2022-07-19T02:56:01;95739.88;;;25.50;36.70
22389;BME280;11362;48.102;11.620;2022-07-19T02:58:27;95735.50;;;25.49;36.55
22389;BME280;11362;48.102;11.620;2022-07-19T03:00:52;95735.50;;;25.49;36.44
22389;BME280;11362;48.102;11.620;2022-07-19T03:03:17;95748.22;;;25.50;36.42
22389;BME280;11362;48.102;11.620;2022-07-19T03:05:43;95743.84;;;25.49;36.43
22389;BME280;11362;48.102;11.620;2022-07-19T03:08:09;95743.84;;;25.49;36.45
22389;BME280;11362;48.102;11.620;2022-07-19T03:10:34;95744.66;;;25.50;36.31
22389;BME280;11362;48.102;11.620;2022-07-19T03:12:59;95749.41;;;25.49;36.30
22389;BME280;11362;48.102;11.620;2022-07-19T03:15:25;95745.84;;;25.49;36.72
22389;BME280;11362;48.102;11.620;2022-07-19T03:17:50;95751.00;;;25.50;36.39
22389;BME280;11362;48.102;11.620;2022-07-19T03:20:15;95750.63;;;25.48;36.44
22389;BME280;11362;48.102;11.620;2022-07-19T03:22:41;95745.84;;;25.49;36.61
22389;BME280;11362;48.102;11.620;2022-07-19T03:25:06;95749.41;;;25.49;36.84
22389;BME280;11362;48.102;11.620;2022-07-19T03:27:32;95746.25;;;25.47;36.73
22389;BME280;11362;48.102;11.620;2022-07-19T03:29:57;95751.81;;;25.47;36.73
22389;BME280;11362;48.102;11.620;2022-07-19T03:32:22;95750.63;;;25.48;36.70
22389;BME280;11362;48.102;11.620;2022-07-19T03:34:47;95746.25;;;25.47;36.73
22389;BME280;11362;48.102;11.620;2022-07-19T03:37:13;95751.81;;;25.47;36.68
22389;BME280;11362;48.102;11.620;2022-07-19T03:39:38;95746.25;;;25.47;36.58
22389;BME280;11362;48.102;11.620;2022-07-19T03:42:03;95744.69;;;25.46;36.72
22389;BME280;11362;48.102;11.620;2022-07-19T03:44:28;95747.06;;;25.48;36.54
22389;BME280;11362;48.102;11.620;2022-07-19T03:46:54;95741.91;;;25.46;36.75
22389;BME280;11362;48.102;11.620;2022-07-19T03:49:19;95746.25;;;25.47;36.55
22389;BME280;11362;48.102;11.620;2022-07-19T03:51:44;95737.16;;;25.47;36.67
22389;BME280;11362;48.102;11.620;2022-07-19T03:54:10;95741.50;;;25.48;36.65
22389;BME280;11362;48.102;11.620;2022-07-19T03:56:35;95739.13;;;25.46;36.52
22389;BME280;11362;48.102;11.620;2022-07-19T03:59:00;95739.94;;;25.47;36.54
22389;BME280;11362;48.102;11.620;2022-07-19T04:01:25;95739.94;;;25.47;36.81
22389;BME280;11362;48.102;11.620;2022-07-19T04:03:51;95746.66;;;25.46;36.67
22389;BME280;11362;48.102;11.620;2022-07-19T04:06:16;95740.69;;;25.47;36.50
22389;BME280;11362;48.102;11.620;2022-07-19T04:08:41;95744.69;;;25.46;36.57
22389;BME280;11362;48.102;11.620;2022-07-19T04:11:07;95755.81;;;25.46;36.56
22389;BME280;11362;48.102;11.620;2022-07-19T04:13:34;95751.81;;;25.47;36.62
22389;BME280;11362;48.102;11.620;2022-07-19T04:16:00;95751.81;;;25.47;36.74
22389;BME280;11362;48.102;11.620;2022-07-19T04:18:26;95750.25;;;25.46;36.54
22389;BME280;11362;48.102;11.620;2022-07-19T04:20:51;95752.63;;;25.48;36.39
22389;BME280;11362;48.102;11.620;2022-07-19T04:23:17;95745.50;;;25.47;36.52
22389;BME280;11362;48.102;11.620;2022-07-19T04:25:43;95747.06;;;25.48;36.63
22389;BME280;11362;48.102;11.620;2022-07-19T04:28:08;95747.84;;;25.48;36.65
22389;BME280;11362;48.102;11.620;2022-07-19T04:30:33;95752.19;;;25.49;36.64
22389;BME280;11362;48.102;11.620;2022-07-19T04:32:59;95754.19;;;25.49;36.43
22389;BME280;11362;48.102;11.620;2022-07-19T04:35:25;95749.84;;;25.48;36.49
22389;BME280;11362;48.102;11.620;2022-07-19T04:37:50;95748.28;;;25.47;36.61
22389;BME280;11362;48.102;11.620;2022-07-19T04:40:15;95749.41;;;25.49;36.48
22389;BME280;11362;48.102;11.620;2022-07-19T04:42:41;95736.72;;;25.48;36.86
22389;BME280;11362;48.102;11.620;2022-07-19T04:45:06;95741.50;;;25.48;36.74
22389;BME280;11362;48.102;11.620;2022-07-19T04:47:32;95741.06;;;25.49;36.77
22389;BME280;11362;48.102;11.620;2022-07-19T04:49:57;95737.50;;;25.49;36.56
22389;BME280;11362;48.102;11.620;2022-07-19T04:52:22;95738.28;;;25.49;36.40
22389;BME280;11362;48.102;11.620;2022-07-19T04:54:48;95736.72;;;25.48;36.47
22389;BME280;11362;48.102;11.620;2022-07-19T04:57:13;95737.50;;;25.49;36.56
22389;BME280;11362;48.102;11.620;2022-07-19T04:59:39;95747.06;;;25.48;36.75
22389;BME280;11362;48.102;11.620;2022-07-19T05:02:04;95750.22;;;25.50;36.58
22389;BME280;11362;48.102;11.620;2022-07-19T05:04:30;95747.06;;;25.48;36.79
22389;BME280;11362;48.102;11.620;2022-07-19T05:06:55;95747.84;;;25.48;36.87
22389;BME280;11362;48.102;11.620;2022-07-19T05:09:20;95745.84;;;25.49;36.57
22389;BME280;11362;48.102;11.620;2022-07-19T05:11:46;95742.28;;;25.48;36.73
22389;BME280;11362;48.102;11.620;2022-07-19T05:14:11;95745.06;;;25.48;36.87
22389;BME280;11362;48.102;11.620;2022-07-19T05:16:36;95738.28;;;25.49;36.49
22389;BME280;11362;48.102;11.620;2022-07-19T05:19:02;95745.06;;;25.48;36.62
22389;BME280;11362;48.102;11.620;2022-07-19T05:21:27;95746.63;;;25.49;36.78
22389;BME280;11362;48.102;11.620;2022-07-19T05:23:52;95747.00;;;25.51;36.75
22389;BME280;11362;48.102;11.620;2022-07-19T05:26:18;95742.63;;;25.54;36.86
22389;BME280;11362;48.102;11.620;2022-07-19T05:28:43;95741.41;;;25.55;36.77
22389;BME280;11362;48.102;11.620;2022-07-19T05:31:08;95744.19;;;25.55;36.84
22389;BME280;11362;48.102;11.620;2022-07-19T05:33:33;95760.06;;;25.54;37.01
22389;BME280;11362;48.102;11.620;2022-07-19T05:35:59;95762.44;;;25.56;36.72
22389;BME280;11362;48.102;11.620;2022-07-19T05:38:24;95758.88;;;25.55;36.75
22389;BME280;11362;48.102;11.620;2022-07-19T05:40:49;95757.66;;;25.56;37.17
22389;BME280;11362;48.102;11.620;2022-07-19T05:43:15;95751.78;;;25.51;36.66
22389;BME280;11362;48.102;11.620;2022-07-19T05:45:40;95754.97;;;25.49;36.81
22389;BME280;11362;48.102;11.620;2022-07-19T05:48:05;95759.34;;;25.50;36.59
22389;BME280;11362;48.102;11.620;2022-07-19T05:50:31;95757.34;;;25.51;36.69
22389;BME280;11362;48.102;11.620;2022-07-19T05:52:56;95760.47;;;25.53;36.62
22389;BME280;11362;48.102;11.620;2022-07-19T05:55:21;95758.50;;;25.53;36.54
22389;BME280;11362;48.102;11.620;2022-07-19T05:57:46;95739.84;;;25.54;36.64
22389;BME280;11362;48.102;11.620;2022-07-19T06:00:12;95736.59;;;25.55;36.97
22389;BME280;11362;48.102;11.620;2022-07-19T06:02:37;95735.41;;;25.56;36.81
22389;BME280;11362;48.102;11.620;2022-07-19T06:05:03;95733.81;;;25.55;36.93
22389;BME280;11362;48.102;11.620;2022-07-19T06:07:28;95728.66;;;25.57;36.95
22389;BME280;11362;48.102;11.620;2022-07-19T06:09:54;95705.59;;;25.57;37.25
22389;BME280;11362;48.102;11.620;2022-07-19T06:12:19;95706.41;;;25.57;37.19
22389;BME280;11362;48.102;11.620;2022-07-19T06:14:44;95702.00;;;25.56;37.02
22389;BME280;11362;48.102;11.620;2022-07-19T06:17:09;95736.59;;;25.55;37.09
22389;BME280;11362;48.102;11.620;2022-07-19T06:19:35;95739.78;;;25.57;36.98
22389;BME280;11362;48.102;11.620;2022-07-19T06:22:00;95738.19;;;25.56;37.15
22389;BME280;11362;48.102;11.620;2022-07-19T06:24:25;95739.78;;;25.57;37.22
22389;BME280;11362;48.102;11.620;2022-07-19T06:26:51;95740.97;;;25.56;37.15
22389;BME280;11362;48.102;11.620;2022-07-19T06:29:16;95734.22;;;25.57;37.23
22389;BME280;11362;48.102;11.620;2022-07-19T06:31:42;95733.41;;;25.57;37.29
22389;BME280;11362;48.102;11.620;2022-07-19T06:34:07;95739.78;;;25.57;36.90
22389;BME280;11362;48.102;11.620;2022-07-19T06:36:32;95747.31;;;25.57;37.17
22389;BME280;11362;48.102;11.620;2022-07-19T06:38:58;95739.78;;;25.57;37.17
22389;BME280;11362;48.102;11.620;2022-07-19T06:41:23;95750.91;;;25.57;37.23
22389;BME280;11362;48.102;11.620;2022-07-19T06:43:48;95746.13;;;25.58;36.83
22389;BME280;11362;48.102;11.620;2022-07-19T06:46:13;95748.50;;;25.59;37.32
22389;BME280;11362;48.102;11.620;2022-07-19T06:48:39;95734.22;;;25.57;37.26
22389;BME280;11362;48.102;11.620;2022-07-19T06:51:06;95737.38;;;25.59;37.15
22389;BME280;11362;48.102;11.620;2022-07-19T06:53:31;95732.56;;;25.60;37.21
22389;BME280;11362;48.102;11.620;2022-07-19T06:55:57;95737.38;;;25.59;37.41
22389;BME280;11362;48.102;11.620;2022-07-19T06:58:22;95727.81;;;25.60;37.57
22389;BME280;11362;48.102;11.620;2022-07-19T07:00:47;95740.16;;;25.59;37.38
22389;BME280;11362;48.102;11.620;2022-07-19T07:03:13;95739.69;;;25.61;37.54
22389;BME280;11362;48.102;11.620;2022-07-19T07:05:38;95734.13;;;25.61;37.12
22389;BME280;11362;48.102;11.620;2022-07-19T07:08:03;95732.56;;;25.60;37.41
22389;BME280;11362;48.102;11.620;2022-07-19T07:10:29;95729.78;;;25.60;37.28
22389;BME280;11362;48.102;11.620;2022-07-19T07:12:54;95736.16;;;25.60;37.48
22389;BME280;11362;48.102;11.620;2022-07-19T07:15:19;95736.91;;;25.61;37.25
22389;BME280;11362;48.102;11.620;2022-07-19T07:17:45;95735.34;;;25.60;37.53
22389;BME280;11362;48.102;11.620;2022-07-19T07:20:10;95734.13;;;25.61;37.56
22389;BME280;11362;48.102;11.620;2022-07-19T07:22:36;95740.50;;;25.61;37.75
22389;BME280;11362;48.102;11.620;2022-07-19T07:25:02;95738.53;;;25.62;37.50
22389;BME280;11362;48.102;11.620;2022-07-19T07:27:28;95732.50;;;25.63;37.28
22389;BME280;11362;48.102;11.620;2022-07-19T07:29:53;95732.50;;;25.63;37.23
22389;BME280;11362;48.102;11.620;2022-07-19T07:32:19;95721.38;;;25.63;37.30
22389;BME280;11362;48.102;11.620;2022-07-19T07:34:45;95720.19;;;25.64;37.36
22389;BME280;11362;48.102;11.620;2022-07-19T07:37:10;95711.84;;;25.64;37.36
22389;BME280;11362;48.102;11.620;2022-07-19T07:39:36;95722.97;;;25.64;37.30
22389;BME280;11362;48.102;11.620;2022-07-19T07:42:01;95719.00;;;25.65;37.39
22389;BME280;11362;48.102;11.620;2022-07-19T07:44:26;95712.63;;;25.65;37.57
22389;BME280;11362;48.102;11.620;2022-07-19T07:46:52;95715.00;;;25.66;37.57
22389;BME280;11362;48.102;11.620;2022-07-19T07:49:17;95716.56;;;25.67;37.12
22389;BME280;11362;48.102;11.620;2022-07-19T07:51:43;95717.34;;;25.68;37.11
22389;BME280;11362;48.102;11.620;2022-07-19T07:54:08;95718.16;;;25.68;37.27
22389;BME280;11362;48.102;11.620;2022-07-19T07:56:33;95716.56;;;25.67;37.36
22389;BME280;11362;48.102;11.620;2022-07-19T07:58:59;95709.78;;;25.68;37.30
22389;BME280;11362;48.102;11.620;2022-07-19T08:01:24;95707.81;;;25.69;37.68
22389;BME280;11362;48.102;11.620;2022-07-19T08:03:49;95690.31;;;25.68;37.66
22389;BME280;11362;48.102;11.620;2022-07-19T08:06:15;95686.31;;;25.69;37.55
22389;BME280;11362;48.102;11.620;2022-07-19T08:08:40;95691.13;;;25.69;37.38
22389;BME280;11362;48.102;11.620;2022-07-19T08:11:05;95685.56;;;25.69;37.53
22389;BME280;11362;48.102;11.620;2022-07-19T08:13:30;95685.56;;;25.69;37.36
22389;BME280;11362;48.102;11.620;2022-07-19T08:15:56;95686.31;;;25.69;37.64
22389;BME280;11362;48.102;11.620;2022-07-19T08:18:21;95685.13;;;25.70;37.64
22389;BME280;11362;48.102;11.620;2022-07-19T08:20:47;95680.34;;;25.71;37.42
22389;BME280;11362;48.102;11.620;2022-07-19T08:23:12;95678.34;;;25.71;37.56
22389;BME280;11362;48.102;11.620;2022-07-19T08:25:37;95692.25;;;25.71;37.58
22389;BME280;11362;48.102;11.620;2022-07-19T08:28:03;95696.63;;;25.72;37.42
22389;BME280;11362;48.102;11.620;2022-07-19T08:30:29;95703.75;;;25.73;37.65
22389;BME280;11362;48.102;11.620;2022-07-19T08:32:54;95702.97;;;25.73;37.56
22389;BME280;11362;48.102;11.620;2022-07-19T08:35:20;95703.75;;;25.73;37.82
22389;BME280;11362;48.102;11.620;2022-07-19T08:37:45;95703.75;;;25.73;37.82
22389;BME280;11362;48.102;11.620;2022-07-19T08:40:10;95701.75;;;25.74;37.59
22389;BME280;11362;48.102;11.620;2022-07-19T08:42:36;95699.78;;;25.74;37.67
22389;BME280;11362;48.102;11.620;2022-07-19T08:45:04;95699.41;;;25.72;37.52
22389;BME280;11362;48.102;11.620;2022-07-19T08:47:30;95694.63;;;25.73;37.46
22389;BME280;11362;48.102;11.620;2022-07-19T08:49:58;95693.41;;;25.74;37.56
22389;BME280;11362;48.102;11.620;2022-07-19T08:52:23;95697.00;;;25.74;37.47
22389;BME280;11362;48.102;11.620;2022-07-19T08:54:49;95692.63;;;25.73;37.09
22389;BME280;11362;48.102;11.620;2022-07-19T08:57:14;95697.75;;;25.75;37.48
22389;BME280;11362;48.102;11.620;2022-07-19T08:59:40;95694.22;;;25.74;37.44
22389;BME280;11362;48.102;11.620;2022-07-19T09:02:05;95689.00;;;25.76;37.39
22389;BME280;11362;48.102;11.620;2022-07-19T09:04:30;95683.84;;;25.75;37.10
22389;BME280;11362;48.102;11.620;2022-07-19T09:06:57;95684.66;;;25.75;37.27
22389;BME280;11362;48.102;11.620;2022-07-19T09:09:26;95690.22;;;25.75;37.26
22389;BME280;11362;48.102;11.620;2022-07-19T09:11:54;95696.56;;;25.76;37.32
22389;BME280;11362;48.102;11.620;2022-07-19T09:14:25;95692.19;;;25.75;37.26
22389;BME280;11362;48.102;11.620;2022-07-19T09:17:04;95694.56;;;25.76;37.35
22389;BME280;11362;48.102;11.620;2022-07-19T09:19:35;95686.22;;;25.76;37.17
22389;BME280;11362;48.102;11.620;2022-07-19T09:24:33;95679.88;;;25.76;37.35
22389;BME280;11362;48.102;11.620;2022-07-19T09:29:32;95681.44;;;25.77;37.15
22389;BME280;11362;48.102;11.620;2022-07-19T09:34:42;95677.88;;;25.76;37.07
22389;BME280;11362;48.102;11.620;2022-07-19T09:37:17;95666.75;;;25.76;37.09
22389;BME280;11362;48.102;11.620;2022-07-19T09:39:45;95669.53;;;25.76;37.33
22389;BME280;11362;48.102;11.620;2022-07-19T09:42:15;95675.09;;;25.76;37.35
22389;BME280;11362;48.102;11.620;2022-07-19T09:44:41;95682.22;;;25.77;37.33
22389;BME280;11362;48.102;11.620;2022-07-19T09:47:07;95668.31;;;25.77;37.07
22389;BME280;11362;48.102;11.620;2022-07-19T09:49:32;95666.31;;;25.78;37.31
22389;BME280;11362;48.102;11.620;2022-07-19T09:51:58;95670.31;;;25.77;37.27
22389;BME280;11362;48.102;11.620;2022-07-19T09:54:26;95671.88;;;25.78;37.03
22389;BME280;11362;48.102;11.620;2022-07-19T09:56:53;95665.53;;;25.77;37.20
22389;BME280;11362;48.102;11.620;2022-07-19T09:59:20;95659.97;;;25.77;37.29
22389;BME280;11362;48.102;11.620;2022-07-19T10:01:50;95655.19;;;25.78;37.07
22389;BME280;11362;48.102;11.620;2022-07-19T10:04:20;95655.19;;;25.78;37.23
22389;BME280;11362;48.102;11.620;2022-07-19T10:06:47;95655.97;;;25.78;37.27
22389;BME280;11362;48.102;11.620;2022-07-19T10:09:16;95654.38;;;25.77;37.24
22389;BME280;11362;48.102;11.620;2022-07-19T10:11:42;95647.59;;;25.78;36.96
22389;BME280;11362;48.102;11.620;2022-07-19T10:14:08;95639.25;;;25.78;37.22
22389;BME280;11362;48.102;11.620;2022-07-19T10:17:01;95640.88;;;25.79;37.31
22389;BME280;11362;48.102;11.620;2022-07-19T10:19:41;95642.44;;;25.80;37.08
22389;BME280;11362;48.102;11.620;2022-07-19T10:22:12;95633.69;;;25.78;37.34
22389;BME280;11362;48.102;11.620;2022-07-19T10:24:54;95634.50;;;25.79;37.34
22389;BME280;11362;48.102;11.620;2022-07-19T10:32:37;95599.47;;;25.81;37.56
22389;BME280;11362;48.102;11.620;2022-07-19T10:40:40;95632.00;;;25.84;37.49
22389;BME280;11362;48.102;11.620;2022-07-19T10:43:10;95607.75;;;25.85;37.32
22389;BME280;11362;48.102;11.620;2022-07-19T10:45:37;95613.31;;;25.85;37.09
22389;BME280;11362;48.102;11.620;2022-07-19T10:48:05;95613.31;;;25.85;37.50
22389;BME280;11362;48.102;11.620;2022-07-19T10:50:44;95636.38;;;25.85;37.19
22389;BME280;11362;48.102;11.620;2022-07-19T10:53:10;95628.00;;;25.85;37.41
22389;BME280;11362;48.102;11.620;2022-07-19T10:55:35;95623.66;;;25.84;37.04
22389;BME280;11362;48.102;11.620;2022-07-19T11:00:43;95628.78;;;25.89;39.17
22389;BME280;11362;48.102;11.620;2022-07-19T11:05:52;95624.38;;;25.92;38.92
22389;BME280;11362;48.102;11.620;2022-07-19T11:08:30;95622.34;;;25.92;39.11
22389;BME280;11362;48.102;11.620;2022-07-19T11:13:32;95633.38;;;25.99;36.85
22389;BME280;11362;48.102;11.620;2022-07-19T11:15:57;95611.09;;;25.99;36.64
22389;BME280;11362;48.102;11.620;2022-07-19T11:18:23;95606.41;;;25.96;36.69
22389;BME280;11362;48.102;11.620;2022-07-19T11:20:48;95597.31;;;25.92;36.83
22389;BME280;11362;48.102;11.620;2022-07-19T11:23:17;95599.31;;;25.92;36.83
22389;BME280;11362;48.102;11.620;2022-07-19T11:25:44;95602.09;;;25.92;37.04
22389;BME280;11362;48.102;11.620;2022-07-19T11:28:24;95595.75;;;25.91;37.11
22389;BME280;11362;48.102;11.620;2022-07-19T11:30:50;95594.16;;;25.90;37.05
22389;BME280;11362;48.102;11.620;2022-07-19T11:33:19;95596.94;;;25.90;37.02
22389;BME280;11362;48.102;11.620;2022-07-19T11:35:56;95589.81;;;25.89;37.05
22389;BME280;11362;48.102;11.620;2022-07-19T11:38:22;95589.41;;;25.91;37.21
22389;BME280;11362;48.102;11.620;2022-07-19T11:40:47;95585.81;;;25.90;37.14
22389;BME280;11362;48.102;11.620;2022-07-19T11:43:13;95580.25;;;25.90;36.99
22389;BME280;11362;48.102;11.620;2022-07-19T11:45:44;95580.25;;;25.90;36.90
22389;BME280;11362;48.102;11.620;2022-07-19T11:48:10;95570.34;;;25.89;36.99
22389;BME280;11362;48.102;11.620;2022-07-19T11:50:35;95564.78;;;25.89;37.30
22389;BME280;11362;48.102;11.620;2022-07-19T11:53:00;95574.69;;;25.90;37.15
22389;BME280;11362;48.102;11.620;2022-07-19T11:55:37;95564.78;;;25.89;37.14
22389;BME280;11362;48.102;11.620;2022-07-19T11:58:07;95563.56;;;25.90;37.18
22389;BME280;11362;48.102;11.620;2022-07-19T12:00:33;95557.56;;;25.92;37.11
22389;BME280;11362;48.102;11.620;2022-07-19T12:03:07;95553.22;;;25.91;36.85
22389;BME280;11362;48.102;11.620;2022-07-19T12:05:38;95549.63;;;25.90;37.14
22389;BME280;11362;48.102;11.620;2022-07-19T12:08:07;95544.06;;;25.90;37.11
22389;BME280;11362;48.102;11.620;2022-07-19T12:13:06;95553.22;;;25.91;37.20
22389;BME280;11362;48.102;11.620;2022-07-19T12:16:08;95544.06;;;25.90;37.26
22389;BME280;11362;48.102;11.620;2022-07-19T12:18:53;95555.56;;;25.92;37.26
22389;BME280;11362;48.102;11.620;2022-07-19T12:29:32;95534.84;;;25.93;37.30
22389;BME280;11362;48.102;11.620;2022-07-19T12:32:01;95530.88;;;25.94;37.07
22389;BME280;11362;48.102;11.620;2022-07-19T12:34:27;95533.66;;;25.94;37.29
22389;BME280;11362;48.102;11.620;2022-07-19T12:36:53;95530.88;;;25.94;36.94
22389;BME280;11362;48.102;11.620;2022-07-19T12:39:22;95526.88;;;25.95;37.21
22389;BME280;11362;48.102;11.620;2022-07-19T12:42:05;95521.31;;;25.95;36.95
22389;BME280;11362;48.102;11.620;2022-07-19T12:44:32;95522.88;;;25.96;37.04
22389;BME280;11362;48.102;11.620;2022-07-19T12:46:58;95518.09;;;25.97;37.36
22389;BME280;11362;48.102;11.620;2022-07-19T12:49:24;95527.25;;;25.97;37.04
22389;BME280;11362;48.102;11.620;2022-07-19T12:51:51;95516.91;;;25.98;37.25
22389;BME280;11362;48.102;11.620;2022-07-19T12:54:16;95520.44;;;25.98;37.18
22389;BME280;11362;48.102;11.620;2022-07-19T12:56:42;95522.03;;;25.99;37.19
22389;BME280;11362;48.102;11.620;2022-07-19T12:59:07;95504.56;;;25.99;37.27
22389;BME280;11362;48.102;11.620;2022-07-19T13:01:33;95522.81;;;26.00;37.12
22389;BME280;11362;48.102;11.620;2022-07-19T13:03:58;95518.03;;;26.00;36.93
22389;BME280;11362;48.102;11.620;2022-07-19T13:06:24;95521.59;;;26.01;36.96
22389;BME280;11362;48.102;11.620;2022-07-19T13:08:49;95508.47;;;26.01;37.15
22389;BME280;11362;48.102;11.620;2022-07-19T13:11:15;95517.59;;;26.02;37.11
22389;BME280;11362;48.102;11.620;2022-07-19T13:13:40;95503.25;;;26.03;37.18
22389;BME280;11362;48.102;11.620;2022-07-19T13:16:06;95509.59;;;26.04;36.85
22389;BME280;11362;48.102;11.620;2022-07-19T13:18:31;95508.41;;;26.05;37.08
22389;BME280;11362;48.102;11.620;2022-07-19T13:20:56;95498.03;;;26.05;37.28
22389;BME280;11362;48.102;11.620;2022-07-19T13:23:22;95499.63;;;26.06;37.37